createdAt,value
2022-09-28T00:04:16.273Z,92.03
2022-09-28T00:09:48.142Z,91.80
2022-09-28T00:15:19.997Z,92.19
2022-09-28T00:20:51.986Z,91.77
2022-09-28T00:26:23.897Z,91.53
2022-09-28T00:31:55.471Z,92.08
2022-09-28T00:37:27.662Z,91.93
2022-09-28T00:42:59.302Z,91.92
2022-09-28T00:54:00.502Z,92.19
2022-09-28T00:59:32.168Z,92.19
2022-09-28T01:10:33.590Z,92.28
2022-09-28T01:21:35.067Z,92.38
2022-09-28T01:27:06.708Z,91.73
2022-09-28T01:32:38.462Z,91.74
2022-09-28T01:38:10.473Z,91.17
2022-09-28T01:49:11.495Z,90.91
2022-09-28T01:54:43.289Z,90.65
2022-09-28T02:05:44.707Z,90.13
2022-09-28T02:13:37.693Z,89.84
2022-09-28T02:24:39.012Z,89.72
2022-09-28T02:30:10.805Z,89.67
2022-09-28T02:35:42.757Z,89.63
2022-09-28T02:41:14.538Z,89.69
2022-09-28T02:46:46.345Z,89.73
2022-09-28T02:52:18.310Z,89.84
2022-09-28T02:57:51.525Z,89.67
2022-09-28T03:03:23.147Z,89.92
2022-09-28T03:08:54.648Z,90.16
2022-09-28T03:14:26.319Z,89.99
2022-09-28T03:19:57.852Z,90.04
2022-09-28T03:25:29.652Z,90.26
2022-09-28T03:31:01.449Z,90.21
2022-09-28T03:36:33.338Z,90.17
2022-09-28T03:42:05.306Z,90.10
2022-09-28T03:47:36.954Z,90.17
2022-09-28T03:53:08.338Z,89.97
2022-09-28T03:58:39.848Z,89.85
2022-09-28T04:04:11.515Z,89.68
2022-09-28T04:09:43.577Z,89.42
2022-09-28T04:15:15.172Z,89.10
2022-09-28T04:20:46.707Z,88.93
2022-09-28T04:26:18.311Z,88.88
2022-09-28T04:31:50.175Z,88.54
2022-09-28T04:37:21.906Z,88.38
2022-09-28T04:42:53.811Z,88.50
2022-09-28T04:48:25.575Z,88.31
2022-09-28T04:53:57.255Z,88.41
2022-09-28T05:05:00.761Z,88.80
2022-09-28T05:10:32.048Z,88.95
2022-09-28T05:16:05.577Z,89.06
2022-09-28T05:21:35.031Z,88.85
2022-09-28T05:27:06.550Z,88.93
2022-09-28T05:32:37.891Z,88.86
2022-09-28T05:38:09.647Z,87.33
2022-09-28T05:43:41.400Z,88.05
2022-09-28T05:49:12.734Z,87.27
2022-09-28T05:54:44.064Z,87.05
2022-09-28T06:00:16.223Z,88.06
2022-09-28T06:05:47.485Z,87.83
2022-09-28T06:11:19.053Z,88.22
2022-09-28T06:16:50.798Z,88.64
2022-09-28T06:22:22.027Z,89.10
2022-09-28T06:27:53.630Z,89.44
2022-09-28T06:33:25.125Z,89.12
2022-09-28T06:38:56.957Z,88.92
2022-09-28T06:44:28.736Z,88.49
2022-09-28T06:50:00.054Z,88.65
2022-09-28T06:55:32.003Z,87.54
2022-09-28T07:01:03.879Z,87.87
2022-09-28T07:06:35.613Z,87.48
2022-09-28T07:12:07.386Z,88.24
2022-09-28T07:17:52.488Z,88.38
2022-09-28T07:23:18.960Z,88.82
2022-09-28T07:28:42.312Z,88.61
2022-09-28T07:34:14.148Z,88.39
2022-09-28T07:39:46.221Z,88.71
2022-09-28T07:45:17.762Z,88.93
2022-09-28T07:50:49.524Z,88.60
2022-09-28T07:56:21.549Z,88.60
2022-09-28T08:01:53.314Z,88.43
2022-09-28T08:07:25.111Z,88.56
2022-09-28T08:12:59.280Z,88.56
2022-09-28T08:18:28.753Z,88.66
2022-09-28T08:24:00.557Z,89.37
2022-09-28T08:29:32.128Z,88.88
2022-09-28T08:35:03.822Z,88.21
2022-09-28T08:40:35.878Z,88.29
2022-09-28T08:46:07.437Z,88.58
2022-09-28T08:51:39.095Z,88.67
2022-09-28T08:57:10.822Z,83.00
2022-09-28T09:02:42.650Z,83.65
2022-09-28T09:08:14.337Z,85.20
2022-09-28T09:13:46.161Z,86.93
2022-09-28T09:24:49.623Z,87.92
2022-09-28T09:30:21.532Z,87.89
2022-09-28T09:35:53.307Z,88.92
2022-09-28T09:41:25.210Z,87.11
2022-09-28T09:46:56.946Z,88.13
2022-09-28T09:52:28.802Z,88.11
2022-09-28T09:54:52.439Z,88.19
2022-09-28T10:00:24.183Z,88.63
2022-09-28T10:05:55.572Z,90.05
2022-09-28T10:11:27.032Z,90.46
2022-09-28T10:16:58.979Z,90.42
2022-09-28T10:22:30.468Z,90.20
2022-09-28T10:28:02.165Z,89.65
2022-09-28T10:33:33.784Z,89.56
2022-09-28T10:39:05.672Z,89.13
2022-09-28T10:44:37.469Z,89.11
2022-09-28T10:50:09.335Z,88.51
2022-09-28T10:55:41.215Z,88.49
2022-09-28T11:01:13.082Z,88.83
2022-09-28T11:06:44.695Z,88.45
2022-09-28T11:12:16.488Z,87.88
2022-09-28T11:17:48.123Z,86.95
2022-09-28T11:23:20.056Z,86.91
2022-09-28T11:28:51.777Z,86.53
2022-09-28T11:34:31.364Z,86.87
2022-09-28T11:39:55.315Z,86.76
2022-09-28T11:45:26.655Z,86.68
2022-09-28T11:50:58.057Z,86.80
2022-09-28T11:56:29.906Z,86.30
2022-09-28T12:07:31.237Z,86.29
2022-09-28T12:15:25.088Z,86.37
2022-09-28T12:20:57.553Z,86.68
2022-09-28T12:26:28.677Z,86.57
2022-09-28T12:32:00.352Z,85.98
2022-09-28T12:39:58.137Z,86.22
2022-09-28T12:45:24.449Z,86.37
2022-09-28T12:50:57.857Z,86.82
2022-09-28T12:56:28.107Z,86.84
2022-09-28T13:01:59.963Z,86.66
2022-09-28T13:07:31.747Z,87.24
2022-09-28T13:13:03.591Z,87.56
2022-09-28T13:18:35.380Z,87.39
2022-09-28T13:24:27.789Z,87.80
2022-09-28T13:35:10.412Z,87.57
2022-09-28T13:40:42.261Z,87.46
2022-09-28T13:46:14.039Z,86.76
2022-09-28T13:51:45.810Z,86.61
2022-09-28T13:57:17.793Z,86.23
2022-09-28T14:02:49.620Z,86.05
2022-09-28T14:08:21.153Z,86.09
2022-09-28T14:13:52.609Z,85.63
2022-09-28T14:19:24.479Z,85.76
2022-09-28T14:24:56.309Z,85.99
2022-09-28T14:30:28.089Z,85.95
2022-09-28T14:35:59.594Z,85.88
2022-09-28T14:41:31.204Z,86.00
2022-09-28T14:47:02.930Z,85.91
2022-09-28T14:52:34.541Z,85.78
2022-09-28T14:58:06.697Z,85.73
2022-09-28T15:03:38.708Z,85.94
2022-09-28T15:09:10.165Z,85.99
2022-09-28T15:14:41.767Z,85.44
2022-09-28T15:20:13.308Z,85.44
2022-09-28T15:25:45.712Z,85.82
2022-09-28T15:31:17.541Z,85.80
2022-09-28T15:36:49.189Z,85.92
2022-09-28T15:42:20.855Z,85.89
2022-09-28T15:47:52.803Z,86.20
2022-09-28T15:58:53.689Z,86.53
2022-09-28T16:04:25.276Z,86.68
2022-09-28T16:15:26.739Z,87.27
2022-09-28T16:20:58.622Z,87.27
2022-09-28T16:26:30.228Z,87.48
2022-09-28T16:32:02.410Z,87.60
2022-09-28T16:37:34.166Z,88.02
2022-09-28T16:43:06.186Z,88.29
2022-09-28T16:48:38.270Z,88.62
2022-09-28T16:54:09.710Z,88.62
2022-09-28T16:59:41.557Z,88.64
2022-09-28T17:05:13.953Z,88.88
2022-09-28T17:11:09.802Z,88.71
2022-09-28T17:16:17.735Z,89.30
2022-09-28T17:21:49.521Z,89.30
2022-09-28T17:27:21.160Z,89.41
2022-09-28T17:32:52.874Z,89.50
2022-09-28T17:38:24.670Z,89.42
2022-09-28T17:46:17.305Z,89.33
2022-09-28T17:51:49.125Z,89.30
2022-09-28T17:57:20.553Z,89.40
2022-09-28T18:02:52.248Z,89.76
2022-09-28T18:08:24.294Z,89.88
2022-09-28T18:13:55.902Z,90.18
2022-09-28T18:19:31.925Z,90.45
2022-09-28T18:24:59.490Z,90.17
2022-09-28T18:30:31.219Z,90.42
2022-09-28T18:41:32.319Z,90.50
2022-09-28T18:47:03.921Z,90.68
2022-09-28T18:58:04.612Z,90.53
2022-09-28T19:03:36.461Z,90.50
2022-09-28T19:14:37.502Z,90.35
2022-09-28T19:20:09.221Z,90.54
2022-09-28T19:31:10.411Z,90.51
2022-09-28T19:36:41.696Z,90.44
2022-09-28T19:42:13.615Z,90.45
2022-09-28T19:47:45.513Z,90.31
2022-09-28T19:58:46.918Z,90.75
2022-09-28T20:04:18.648Z,90.74
2022-09-28T20:09:50.169Z,90.80
2022-09-28T20:15:22.359Z,90.87
2022-09-28T20:20:53.952Z,90.83
2022-09-28T20:39:45.395Z,90.88
2022-09-28T20:45:17.267Z,90.96
2022-09-28T20:50:48.950Z,91.02
2022-09-28T20:56:21.412Z,90.64
2022-09-28T21:01:53.238Z,90.80
2022-09-28T21:07:25.052Z,90.79
2022-09-28T21:12:57.079Z,90.69
2022-09-28T21:18:28.786Z,90.55
2022-09-28T21:24:00.516Z,89.42
2022-09-28T21:29:32.619Z,89.61
2022-09-28T21:40:36.017Z,89.57
2022-09-28T21:46:07.792Z,89.68
2022-09-28T21:51:39.757Z,89.80
2022-09-28T22:02:40.788Z,90.12
2022-09-28T22:13:44.443Z,90.43
2022-09-28T22:19:16.330Z,90.53
2022-09-28T22:30:17.240Z,90.90
2022-09-28T22:35:48.806Z,91.00
2022-09-28T22:41:20.391Z,91.23
2022-09-28T22:46:52.207Z,91.31
2022-09-28T23:03:25.333Z,91.54
2022-09-28T23:08:57.201Z,91.76
2022-09-28T23:14:28.867Z,91.91
2022-09-28T23:20:01.093Z,91.59
2022-09-28T23:25:32.608Z,91.43
2022-09-28T23:31:03.958Z,91.84
2022-09-28T23:36:35.332Z,91.25
2022-09-28T23:42:07.055Z,91.50
2022-09-28T23:47:38.926Z,91.54
2022-09-28T23:53:10.830Z,91.39
2022-09-28T23:58:42.595Z,91.55
